sensor_id;sensor_type;location;lat;lon;timestamp;pressure;altitude;pressure_sealevel;temperature;humidity
22582;BME280;47125;48.542;9.052;2023-06-04T00:08:47;96006.75;;;18.01;54.44
22582;BME280;47125;48.542;9.052;2023-06-04T00:18:50;95996.56;;;17.93;53.96
22582;BME280;47125;48.542;9.052;2023-06-04T00:28:54;95989.81;;;17.91;53.74
22582;BME280;47125;48.542;9.052;2023-06-04T00:38:57;96003.81;;;17.98;53.14
22582;BME280;47125;48.542;9.052;2023-06-04T00:49:01;96004.91;;;17.63;54.54
22582;BME280;47125;48.542;9.052;2023-06-04T00:59:04;96006.22;;;17.66;54.15
22582;BME280;47125;48.542;9.052;2023-06-04T01:09:08;96005.19;;;17.51;54.75
22582;BME280;47125;48.542;9.052;2023-06-04T01:19:17;96008.84;;;17.32;55.46
22582;BME280;47125;48.542;9.052;2023-06-04T01:29:24;96010.25;;;17.24;55.66
22582;BME280;47125;48.542;9.052;2023-06-04T01:39:31;96004.09;;;17.14;56.24
22582;BME280;47125;48.542;9.052;2023-06-04T01:49:35;96012.56;;;16.87;56.13
22582;BME280;47125;48.542;9.052;2023-06-04T01:59:39;96007.69;;;16.89;56.04
22582;BME280;47125;48.542;9.052;2023-06-04T02:09:44;95999.09;;;16.87;55.96
22582;BME280;47125;48.542;9.052;2023-06-04T02:19:47;95996.72;;;16.75;55.87
22582;BME280;47125;48.542;9.052;2023-06-04T02:29:52;96002.72;;;16.57;56.16
22582;BME280;47125;48.542;9.052;2023-06-04T02:39:54;96000.84;;;16.32;56.81
22582;BME280;47125;48.542;9.052;2023-06-04T02:49:58;96011.66;;;16.27;56.57
22582;BME280;47125;48.542;9.052;2023-06-04T03:00:01;96015.41;;;16.16;56.44
22582;BME280;47125;48.542;9.052;2023-06-04T03:10:13;96024.59;;;16.15;56.54
22582;BME280;47125;48.542;9.052;2023-06-04T03:20:16;96036.19;;;16.01;58.10
22582;BME280;47125;48.542;9.052;2023-06-04T03:30:20;96046.16;;;15.95;57.38
22582;BME280;47125;48.542;9.052;2023-06-04T03:40:23;96048.84;;;15.95;57.19
22582;BME280;47125;48.542;9.052;2023-06-04T03:50:26;96053.97;;;15.76;57.53
22582;BME280;47125;48.542;9.052;2023-06-04T04:00:29;96051.00;;;15.83;57.83
22582;BME280;47125;48.542;9.052;2023-06-04T04:10:33;96052.88;;;15.72;58.08
22582;BME280;47125;48.542;9.052;2023-06-04T04:20:36;96056.66;;;15.91;57.11
22582;BME280;47125;48.542;9.052;2023-06-04T04:30:39;96068.78;;;15.79;58.27
22582;BME280;47125;48.542;9.052;2023-06-04T04:40:42;96073.06;;;15.90;56.94
22582;BME280;47125;48.542;9.052;2023-06-04T04:50:46;96077.41;;;16.06;55.34
22582;BME280;47125;48.542;9.052;2023-06-04T05:00:49;96085.75;;;16.10;55.93
22582;BME280;47125;48.542;9.052;2023-06-04T05:10:53;96090.59;;;16.18;55.94
22582;BME280;47125;48.542;9.052;2023-06-04T05:20:55;96104.34;;;16.26;52.41
22582;BME280;47125;48.542;9.052;2023-06-04T05:31:00;96110.81;;;16.45;53.80
22582;BME280;47125;48.542;9.052;2023-06-04T05:41:03;96112.13;;;16.53;55.22
22582;BME280;47125;48.542;9.052;2023-06-04T05:51:08;96120.81;;;16.60;54.07
22582;BME280;47125;48.542;9.052;2023-06-04T06:01:10;96121.84;;;16.79;54.30
22582;BME280;47125;48.542;9.052;2023-06-04T06:11:14;96120.72;;;16.95;52.79
22582;BME280;47125;48.542;9.052;2023-06-04T06:21:17;96139.63;;;16.90;52.47
22582;BME280;47125;48.542;9.052;2023-06-04T06:31:21;96126.81;;;17.31;52.33
22582;BME280;47125;48.542;9.052;2023-06-04T06:41:23;96142.66;;;17.58;52.06
22582;BME280;47125;48.542;9.052;2023-06-04T06:51:28;96143.16;;;17.65;52.10
22582;BME280;47125;48.542;9.052;2023-06-04T07:01:31;96152.19;;;17.94;52.88
22582;BME280;47125;48.542;9.052;2023-06-04T07:11:36;96153.41;;;18.12;52.67
22582;BME280;47125;48.542;9.052;2023-06-04T07:21:38;96150.34;;;18.24;52.01
22582;BME280;47125;48.542;9.052;2023-06-04T07:31:43;96151.16;;;18.63;51.58
22582;BME280;47125;48.542;9.052;2023-06-04T07:41:45;96152.19;;;19.01;51.63
22582;BME280;47125;48.542;9.052;2023-06-04T07:51:49;96150.56;;;19.23;50.81
22582;BME280;47125;48.542;9.052;2023-06-04T08:01:52;96130.06;;;19.41;50.81
22582;BME280;47125;48.542;9.052;2023-06-04T08:11:56;96136.72;;;19.72;49.94
22582;BME280;47125;48.542;9.052;2023-06-04T08:21:59;96139.53;;;20.05;50.03
22582;BME280;47125;48.542;9.052;2023-06-04T08:32:03;96142.13;;;20.33;49.12
22582;BME280;47125;48.542;9.052;2023-06-04T08:42:07;96146.50;;;20.80;48.53
22582;BME280;47125;48.542;9.052;2023-06-04T08:52:14;96141.81;;;21.00;48.21
22582;BME280;47125;48.542;9.052;2023-06-04T09:02:17;96145.69;;;21.26;47.64
22582;BME280;47125;48.542;9.052;2023-06-04T09:12:22;96153.75;;;21.58;46.44
22582;BME280;47125;48.542;9.052;2023-06-04T09:22:31;96161.78;;;21.77;45.92
22582;BME280;47125;48.542;9.052;2023-06-04T09:32:35;96158.72;;;22.19;43.65
22582;BME280;47125;48.542;9.052;2023-06-04T09:42:41;96150.50;;;22.33;44.04
22582;BME280;47125;48.542;9.052;2023-06-04T09:52:45;96154.50;;;22.71;43.46
22582;BME280;47125;48.542;9.052;2023-06-04T10:02:48;96156.78;;;22.78;43.68
22582;BME280;47125;48.542;9.052;2023-06-04T10:12:54;96158.63;;;23.13;43.96
22582;BME280;47125;48.542;9.052;2023-06-04T10:22:57;96147.59;;;23.49;43.67
22582;BME280;47125;48.542;9.052;2023-06-04T10:33:01;96140.94;;;23.81;41.42
22582;BME280;47125;48.542;9.052;2023-06-04T10:43:04;96147.88;;;23.95;41.11
22582;BME280;47125;48.542;9.052;2023-06-04T10:53:08;96150.38;;;24.57;42.23
22582;BME280;47125;48.542;9.052;2023-06-04T11:03:11;96147.28;;;24.67;38.99
22582;BME280;47125;48.542;9.052;2023-06-04T11:13:16;96145.16;;;25.07;39.23
22582;BME280;47125;48.542;9.052;2023-06-04T11:23:25;96144.56;;;25.56;37.83
22582;BME280;47125;48.542;9.052;2023-06-04T11:33:28;96144.25;;;25.41;36.91
22582;BME280;47125;48.542;9.052;2023-06-04T11:43:32;96142.63;;;25.86;36.94
22582;BME280;47125;48.542;9.052;2023-06-04T11:53:36;96132.47;;;26.37;36.25
22582;BME280;47125;48.542;9.052;2023-06-04T12:03:39;96134.88;;;26.79;35.18
22582;BME280;47125;48.542;9.052;2023-06-04T12:13:43;96124.19;;;26.45;33.53
22582;BME280;47125;48.542;9.052;2023-06-04T12:23:46;96116.66;;;27.53;35.00
22582;BME280;47125;48.542;9.052;2023-06-04T12:33:50;96132.19;;;26.92;33.38
22582;BME280;47125;48.542;9.052;2023-06-04T12:43:52;96117.97;;;26.57;33.25
22582;BME280;47125;48.542;9.052;2023-06-04T12:53:57;96116.13;;;27.14;32.24
22582;BME280;47125;48.542;9.052;2023-06-04T13:03:59;96109.13;;;27.05;31.79
22582;BME280;47125;48.542;9.052;2023-06-04T13:14:03;96114.13;;;27.48;30.63
22582;BME280;47125;48.542;9.052;2023-06-04T13:24:09;96111.25;;;28.17;30.70
22582;BME280;47125;48.542;9.052;2023-06-04T13:34:13;96105.16;;;28.35;31.04
22582;BME280;47125;48.542;9.052;2023-06-04T13:44:22;96113.00;;;27.49;28.50
22582;BME280;47125;48.542;9.052;2023-06-04T13:54:28;96102.28;;;26.45;32.06
22582;BME280;47125;48.542;9.052;2023-06-04T14:04:32;96100.03;;;27.98;30.19
22582;BME280;47125;48.542;9.052;2023-06-04T14:14:36;96095.88;;;28.28;30.18
22582;BME280;47125;48.542;9.052;2023-06-04T14:24:40;96084.94;;;28.16;28.71
22582;BME280;47125;48.542;9.052;2023-06-04T14:34:44;96085.78;;;28.44;28.69
22582;BME280;47125;48.542;9.052;2023-06-04T14:44:46;96080.47;;;27.99;28.71
22582;BME280;47125;48.542;9.052;2023-06-04T14:54:50;96067.66;;;26.94;27.62
22582;BME280;47125;48.542;9.052;2023-06-04T15:04:55;96062.34;;;27.58;30.38
22582;BME280;47125;48.542;9.052;2023-06-04T15:14:59;96060.69;;;27.09;29.53
22582;BME280;47125;48.542;9.052;2023-06-04T15:25:02;96046.34;;;27.72;29.70
22582;BME280;47125;48.542;9.052;2023-06-04T15:35:06;96055.47;;;27.76;29.05
22582;BME280;47125;48.542;9.052;2023-06-04T15:45:09;96051.34;;;27.70;28.32
22582;BME280;47125;48.542;9.052;2023-06-04T15:55:13;96044.72;;;27.35;29.02
22582;BME280;47125;48.542;9.052;2023-06-04T16:05:16;96030.78;;;27.52;30.15
22582;BME280;47125;48.542;9.052;2023-06-04T16:15:20;96024.25;;;27.20;29.59
22582;BME280;47125;48.542;9.052;2023-06-04T16:25:22;96026.97;;;26.96;28.98
22582;BME280;47125;48.542;9.052;2023-06-04T16:35:26;96024.41;;;26.79;29.06
22582;BME280;47125;48.542;9.052;2023-06-04T16:45:29;96022.53;;;26.59;28.79
22582;BME280;47125;48.542;9.052;2023-06-04T16:55:33;96021.19;;;26.32;29.76
22582;BME280;47125;48.542;9.052;2023-06-04T17:05:37;96030.88;;;26.09;29.75
22582;BME280;47125;48.542;9.052;2023-06-04T17:15:41;96018.47;;;25.70;29.64
22582;BME280;47125;48.542;9.052;2023-06-04T17:25:44;96017.41;;;25.62;29.73
22582;BME280;47125;48.542;9.052;2023-06-04T17:35:48;96024.28;;;25.68;30.05
22582;BME280;47125;48.542;9.052;2023-06-04T17:45:50;96031.84;;;25.34;31.33
22582;BME280;47125;48.542;9.052;2023-06-04T17:55:54;96037.59;;;25.11;31.43
22582;BME280;47125;48.542;9.052;2023-06-04T18:05:57;96038.09;;;25.05;31.73
22582;BME280;47125;48.542;9.052;2023-06-04T18:16:01;96042.06;;;24.61;32.40
22582;BME280;47125;48.542;9.052;2023-06-04T18:26:04;96045.97;;;24.26;35.25
22582;BME280;47125;48.542;9.052;2023-06-04T18:36:09;96052.25;;;24.18;34.00
22582;BME280;47125;48.542;9.052;2023-06-04T18:46:11;96046.28;;;23.73;35.38
22582;BME280;47125;48.542;9.052;2023-06-04T18:56:16;96037.81;;;23.26;36.97
22582;BME280;47125;48.542;9.052;2023-06-04T19:06:18;96034.69;;;23.02;36.69
22582;BME280;47125;48.542;9.052;2023-06-04T19:16:22;96037.50;;;22.80;36.36
22582;BME280;47125;48.542;9.052;2023-06-04T19:26:25;96055.50;;;22.45;37.06
22582;BME280;47125;48.542;9.052;2023-06-04T19:36:29;96074.38;;;22.19;37.04
22582;BME280;47125;48.542;9.052;2023-06-04T19:46:31;96081.81;;;21.91;38.43
22582;BME280;47125;48.542;9.052;2023-06-04T19:56:35;96096.41;;;21.82;37.96
22582;BME280;47125;48.542;9.052;2023-06-04T20:06:38;96098.38;;;21.54;39.70
22582;BME280;47125;48.542;9.052;2023-06-04T20:16:43;96109.38;;;21.22;40.45
22582;BME280;47125;48.542;9.052;2023-06-04T20:26:45;96103.38;;;21.06;40.12
22582;BME280;47125;48.542;9.052;2023-06-04T20:36:49;96110.28;;;21.17;41.32
22582;BME280;47125;48.542;9.052;2023-06-04T20:46:56;96112.13;;;20.89;40.41
22582;BME280;47125;48.542;9.052;2023-06-04T20:57:01;96117.28;;;20.59;39.20
22582;BME280;47125;48.542;9.052;2023-06-04T21:07:03;96115.84;;;20.48;40.01
22582;BME280;47125;48.542;9.052;2023-06-04T21:17:07;96115.88;;;20.29;40.42
22582;BME280;47125;48.542;9.052;2023-06-04T21:27:12;96123.25;;;20.23;40.96
22582;BME280;47125;48.542;9.052;2023-06-04T21:37:16;96117.25;;;20.08;40.34
22582;BME280;47125;48.542;9.052;2023-06-04T21:47:18;96100.97;;;19.89;41.90
22582;BME280;47125;48.542;9.052;2023-06-04T21:57:22;96110.75;;;19.90;41.61
22582;BME280;47125;48.542;9.052;2023-06-04T22:07:25;96115.78;;;19.78;42.11
22582;BME280;47125;48.542;9.052;2023-06-04T22:17:29;96115.13;;;19.44;43.34
22582;BME280;47125;48.542;9.052;2023-06-04T22:27:31;96116.66;;;19.31;42.86
22582;BME280;47125;48.542;9.052;2023-06-04T22:37:35;96134.03;;;19.01;42.39
22582;BME280;47125;48.542;9.052;2023-06-04T22:47:38;96122.56;;;19.09;42.78
22582;BME280;47125;48.542;9.052;2023-06-04T22:57:42;96118.69;;;18.92;45.00
22582;BME280;47125;48.542;9.052;2023-06-04T23:07:45;96115.91;;;18.73;44.47
22582;BME280;47125;48.542;9.052;2023-06-04T23:17:49;96111.22;;;18.55;42.96
22582;BME280;47125;48.542;9.052;2023-06-04T23:27:52;96104.47;;;18.52;43.93
22582;BME280;47125;48.542;9.052;2023-06-04T23:37:56;96090.88;;;18.29;45.10
22582;BME280;47125;48.542;9.052;2023-06-04T23:47:59;96100.13;;;18.17;44.49
22582;BME280;47125;48.542;9.052;2023-06-04T23:58:03;96093.94;;;18.12;44.46
